Time;durP1;ratioP1;P1;durP2;ratioP2;P2;SDS_P1;SDS_P2;PMS_P1;PMS_P2;Temp;Humidity;BMP_temperature;BMP_pressure;BME280_temperature;BME280_humidity;BME280_pressure;Samples;Min_cycle;Max_cycle;Signal;HPM_P1;HPM_P2
2022/10/27 00:02:54;;;;;;;;;;;15.10;99.90;;;;;;12539505;28;20011;-38
2022/10/27 00:08:56;;;;;;;;;;;15.00;99.90;;;;;;12549365;28;19929;-39
2022/10/27 00:14:58;;;;;;;;;;;14.90;99.90;;;;;;12552101;28;19925;-38
2022/10/27 00:21:01;;;;;;;;;;;14.90;99.90;;;;;;12549024;28;20273;-38
2022/10/27 00:27:03;;;;;;;;;;;14.90;99.90;;;;;;12543693;28;19925;-38
2022/10/27 00:33:05;;;;;;;;;;;14.80;99.90;;;;;;12540933;28;19929;-39
2022/10/27 00:39:07;;;;;;;;;;;14.70;99.90;;;;;;12547921;28;19932;-39
2022/10/27 00:45:09;;;;;;;;;;;14.70;99.90;;;;;;12551140;28;19998;-38
2022/10/27 00:51:15;;;;;;;;;;;14.60;99.90;;;;;;12552294;28;19928;-39
2022/10/27 00:57:17;;;;;;;;;;;14.50;99.90;;;;;;12546035;28;20296;-39
2022/10/27 01:03:21;;;;;;;;;;;14.40;99.90;;;;;;12554403;28;19977;-40
2022/10/27 01:09:22;;;;;;;;;;;14.30;99.90;;;;;;12533125;28;19977;-39
2022/10/27 01:15:51;;;;;;;;;;;14.20;99.90;;;;;;12555719;28;19952;-39
2022/10/27 01:21:58;;;;;;;;;;;14.20;99.90;;;;;;12551374;28;19928;-39
2022/10/27 01:28:09;;;;;;;;;;;14.30;99.90;;;;;;12548686;28;19955;-39
2022/10/27 01:34:15;;;;;;;;;;;14.40;99.90;;;;;;12562540;28;19929;-39
2022/10/27 01:40:17;;;;;;;;;;;14.50;99.90;;;;;;12541121;28;19970;-39
2022/10/27 01:46:19;;;;;;;;;;;14.60;99.90;;;;;;12548770;28;19924;-38
2022/10/27 01:52:39;;;;;;;;;;;14.50;99.90;;;;;;12536645;28;19932;-39
2022/10/27 01:58:44;;;;;;;;;;;14.50;99.90;;;;;;12533690;28;19932;-38
2022/10/27 02:04:58;;;;;;;;;;;14.50;99.90;;;;;;12538439;28;19925;-38
2022/10/27 02:11:03;;;;;;;;;;;14.50;99.90;;;;;;12534968;28;19925;-39
2022/10/27 02:17:07;;;;;;;;;;;14.40;99.90;;;;;;12542914;28;19936;-38
2022/10/27 02:23:12;;;;;;;;;;;14.40;99.90;;;;;;12541061;28;19925;-38
2022/10/27 02:29:32;;;;;;;;;;;14.40;99.90;;;;;;12538957;28;19955;-39
2022/10/27 02:35:34;;;;;;;;;;;14.40;99.90;;;;;;12537797;28;20380;-40
2022/10/27 02:41:36;;;;;;;;;;;14.20;99.90;;;;;;12538426;28;19928;-38
2022/10/27 02:47:37;;;;;;;;;;;14.20;99.90;;;;;;12548317;28;19928;-39
2022/10/27 02:53:39;;;;;;;;;;;14.20;99.90;;;;;;12547802;28;19925;-38
2022/10/27 02:59:41;;;;;;;;;;;14.10;99.90;;;;;;12546079;28;19936;-40
2022/10/27 03:05:42;;;;;;;;;;;14.30;99.90;;;;;;12556930;28;20384;-38
2022/10/27 03:11:48;;;;;;;;;;;14.20;99.90;;;;;;12546262;28;20300;-39
2022/10/27 03:17:50;;;;;;;;;;;14.10;99.90;;;;;;12540274;28;19925;-38
2022/10/27 03:23:52;;;;;;;;;;;13.90;99.90;;;;;;12527681;28;19932;-38
2022/10/27 03:29:54;;;;;;;;;;;13.90;99.90;;;;;;12546991;28;20402;-39
2022/10/27 03:35:55;;;;;;;;;;;13.70;99.90;;;;;;12547900;28;19932;-38
2022/10/27 03:41:57;;;;;;;;;;;13.60;99.90;;;;;;12551572;28;19925;-38
2022/10/27 03:48:05;;;;;;;;;;;13.40;99.90;;;;;;12559305;28;20389;-38
2022/10/27 03:54:07;;;;;;;;;;;13.20;99.90;;;;;;12532068;28;20742;-39
2022/10/27 04:00:09;;;;;;;;;;;13.20;99.90;;;;;;12552860;28;19932;-39
2022/10/27 04:06:11;;;;;;;;;;;13.10;99.90;;;;;;12551157;28;19932;-38
2022/10/27 04:12:12;;;;;;;;;;;13.10;99.90;;;;;;12563345;28;19924;-38
2022/10/27 04:18:14;;;;;;;;;;;13.10;99.90;;;;;;12552769;28;19924;-39
2022/10/27 04:24:16;;;;;;;;;;;13.00;99.90;;;;;;12552471;28;19929;-39
2022/10/27 04:30:18;;;;;;;;;;;13.20;99.90;;;;;;12552359;28;19925;-40
2022/10/27 04:36:19;;;;;;;;;;;13.40;99.90;;;;;;12545388;28;19925;-39
2022/10/27 04:42:21;;;;;;;;;;;13.30;99.90;;;;;;12545414;28;19933;-39
2022/10/27 04:48:23;;;;;;;;;;;13.20;99.90;;;;;;12514372;28;19991;-39
2022/10/27 04:54:25;;;;;;;;;;;13.10;99.90;;;;;;12540674;28;19935;-38
2022/10/27 05:00:27;;;;;;;;;;;12.90;99.90;;;;;;12545850;28;19932;-38
2022/10/27 05:06:28;;;;;;;;;;;13.40;99.90;;;;;;12559408;28;19928;-38
2022/10/27 05:12:30;;;;;;;;;;;13.60;99.90;;;;;;12561996;28;19924;-38
2022/10/27 05:18:32;;;;;;;;;;;13.90;99.90;;;;;;12551209;28;19933;-38
2022/10/27 05:24:34;;;;;;;;;;;13.80;99.90;;;;;;12548465;28;19940;-39
2022/10/27 05:30:36;;;;;;;;;;;14.00;99.90;;;;;;12544350;28;20262;-39
2022/10/27 05:36:37;;;;;;;;;;;13.90;99.90;;;;;;12550920;28;19932;-38
2022/10/27 05:42:51;;;;;;;;;;;13.40;99.90;;;;;;12558004;28;19975;-38
2022/10/27 05:48:53;;;;;;;;;;;13.00;99.90;;;;;;12537222;28;19929;-38
2022/10/27 05:54:55;;;;;;;;;;;12.60;99.90;;;;;;12551078;28;19931;-39
2022/10/27 06:01:00;;;;;;;;;;;12.60;99.90;;;;;;12540650;28;19924;-38
2022/10/27 06:07:02;;;;;;;;;;;12.60;99.90;;;;;;12543501;28;19951;-38
2022/10/27 06:13:05;;;;;;;;;;;12.40;99.90;;;;;;12540940;28;19932;-38
2022/10/27 06:19:07;;;;;;;;;;;12.50;99.90;;;;;;12549222;28;19925;-38
2022/10/27 06:25:08;;;;;;;;;;;12.50;99.90;;;;;;12548075;28;19925;-38
2022/10/27 06:31:10;;;;;;;;;;;12.30;99.90;;;;;;12553282;28;19924;-38
2022/10/27 06:37:12;;;;;;;;;;;12.20;99.90;;;;;;12539729;28;19929;-39
2022/10/27 06:43:14;;;;;;;;;;;12.30;99.90;;;;;;12558053;28;19925;-38
2022/10/27 06:49:16;;;;;;;;;;;12.10;99.90;;;;;;12553247;28;19925;-39
2022/10/27 06:55:18;;;;;;;;;;;12.50;99.90;;;;;;12548264;28;19967;-39
2022/10/27 07:01:21;;;;;;;;;;;12.70;99.90;;;;;;12540276;28;19925;-38
2022/10/27 07:07:23;;;;;;;;;;;12.90;99.90;;;;;;12550909;28;19933;-39
2022/10/27 07:13:25;;;;;;;;;;;13.10;99.90;;;;;;12551058;28;19935;-38
2022/10/27 07:19:27;;;;;;;;;;;13.10;99.90;;;;;;12555770;28;20023;-38
2022/10/27 07:25:30;;;;;;;;;;;13.00;99.90;;;;;;12554652;28;19929;-40
2022/10/27 07:31:31;;;;;;;;;;;13.10;99.90;;;;;;12540585;28;20407;-39
2022/10/27 07:37:33;;;;;;;;;;;13.10;99.90;;;;;;12561285;28;19929;-39
2022/10/27 07:43:35;;;;;;;;;;;13.30;99.90;;;;;;12556964;28;19925;-38
2022/10/27 07:49:37;;;;;;;;;;;13.50;99.90;;;;;;12535377;28;19932;-39
2022/10/27 07:55:39;;;;;;;;;;;13.40;99.90;;;;;;12558105;28;20403;-39
2022/10/27 08:01:41;;;;;;;;;;;13.30;99.90;;;;;;12538514;28;19924;-38
2022/10/27 08:07:43;;;;;;;;;;;13.10;99.90;;;;;;12545753;28;19929;-38
2022/10/27 08:13:45;;;;;;;;;;;13.10;99.90;;;;;;12533882;28;19972;-38
2022/10/27 08:19:47;;;;;;;;;;;13.00;99.90;;;;;;12551200;28;19925;-38
2022/10/27 08:25:49;;;;;;;;;;;13.00;99.90;;;;;;12552952;28;19928;-38
2022/10/27 08:31:50;;;;;;;;;;;13.40;99.90;;;;;;12558931;28;19977;-38
2022/10/27 08:37:59;;;;;;;;;;;13.60;99.90;;;;;;12556347;28;19936;-39
2022/10/27 08:44:19;;;;;;;;;;;13.90;99.90;;;;;;12542230;28;19974;-39
2022/10/27 08:50:25;;;;;;;;;;;14.30;99.90;;;;;;12565870;28;20562;-39
2022/10/27 08:56:33;;;;;;;;;;;14.70;99.90;;;;;;12553994;28;20393;-38
2022/10/27 09:02:53;;;;;;;;;;;14.90;99.90;;;;;;12552171;28;19924;-38
2022/10/27 09:08:56;;;;;;;;;;;15.60;99.90;;;;;;12555770;28;19947;-38
2022/10/27 09:15:04;;;;;;;;;;;16.20;99.90;;;;;;12560427;28;20058;-39
2022/10/27 09:21:14;;;;;;;;;;;16.50;99.90;;;;;;12546773;28;19939;-39
2022/10/27 09:27:16;;;;;;;;;;;16.70;99.90;;;;;;12553598;28;19924;-40
2022/10/27 09:33:20;;;;;;;;;;;16.90;99.90;;;;;;12541810;28;19925;-39
2022/10/27 09:39:22;;;;;;;;;;;17.00;99.90;;;;;;12518729;28;20367;-39
2022/10/27 09:45:25;;;;;;;;;;;17.10;99.90;;;;;;12540388;28;19925;-39
2022/10/27 09:51:32;;;;;;;;;;;17.10;99.90;;;;;;12548845;28;19941;-39
2022/10/27 09:57:35;;;;;;;;;;;17.30;99.90;;;;;;12534615;28;20305;-39
2022/10/27 10:03:37;;;;;;;;;;;17.50;99.90;;;;;;12558217;28;19931;-39
2022/10/27 10:09:39;;;;;;;;;;;17.80;99.90;;;;;;12555970;28;19931;-39
2022/10/27 10:15:44;;;;;;;;;;;17.90;99.90;;;;;;12545472;28;20027;-39
2022/10/27 10:21:52;;;;;;;;;;;18.20;99.90;;;;;;12548864;28;20288;-39
2022/10/27 10:28:02;;;;;;;;;;;18.30;99.90;;;;;;12547248;28;19973;-39
2022/10/27 10:34:05;;;;;;;;;;;18.30;99.90;;;;;;12539104;28;19928;-40
2022/10/27 10:40:10;;;;;;;;;;;18.50;99.90;;;;;;12546896;28;19925;-39
2022/10/27 10:46:21;;;;;;;;;;;18.30;99.90;;;;;;12494955;28;20010;-39
2022/10/27 10:52:26;;;;;;;;;;;18.30;99.90;;;;;;12546812;28;20296;-39
2022/10/27 10:58:29;;;;;;;;;;;18.40;99.90;;;;;;12554996;28;19929;-39
2022/10/27 11:04:38;;;;;;;;;;;18.60;99.90;;;;;;12546145;28;19974;-39
2022/10/27 11:10:41;;;;;;;;;;;18.70;99.90;;;;;;12547333;28;20296;-39
2022/10/27 11:16:47;;;;;;;;;;;18.70;99.90;;;;;;12544059;28;19929;-39
2022/10/27 11:22:50;;;;;;;;;;;18.80;99.90;;;;;;12543148;28;20019;-39
2022/10/27 11:29:07;;;;;;;;;;;18.90;99.90;;;;;;12534316;28;19936;-40
2022/10/27 11:35:25;;;;;;;;;;;19.00;99.90;;;;;;12525622;28;19993;-39
2022/10/27 11:41:31;;;;;;;;;;;19.10;99.90;;;;;;12547559;28;19925;-40
2022/10/27 11:47:43;;;;;;;;;;;19.20;99.90;;;;;;12523018;28;19928;-40
2022/10/27 11:53:45;;;;;;;;;;;19.10;99.90;;;;;;12553175;28;19936;-39
2022/10/27 12:00:06;;;;;;;;;;;18.90;99.90;;;;;;12559028;28;19928;-39
2022/10/27 12:06:18;;;;;;;;;;;18.90;99.90;;;;;;12564542;28;19928;-39
2022/10/27 12:12:30;;;;;;;;;;;18.90;99.90;;;;;;12541200;28;19932;-39
2022/10/27 12:18:40;;;;;;;;;;;19.00;99.90;;;;;;12547706;28;19935;-39
2022/10/27 12:24:59;;;;;;;;;;;19.00;99.90;;;;;;12539000;28;20048;-39
2022/10/27 12:31:04;;;;;;;;;;;19.10;99.90;;;;;;12551697;28;19924;-40
2022/10/27 12:37:18;;;;;;;;;;;19.00;99.90;;;;;;12548166;28;19928;-39
2022/10/27 12:43:24;;;;;;;;;;;19.10;99.90;;;;;;12545578;28;19933;-39
2022/10/27 12:49:28;;;;;;;;;;;19.10;99.90;;;;;;12553494;28;20312;-39
2022/10/27 12:55:38;;;;;;;;;;;19.20;99.90;;;;;;12547613;28;20681;-39
2022/10/27 13:01:55;;;;;;;;;;;19.60;99.90;;;;;;12548101;28;20062;-39
2022/10/27 13:08:03;;;;;;;;;;;19.70;99.90;;;;;;12548180;28;19983;-39
2022/10/27 13:14:05;;;;;;;;;;;19.60;99.90;;;;;;12543800;28;20451;-40
2022/10/27 13:20:17;;;;;;;;;;;19.30;99.90;;;;;;12558021;28;19948;-38
2022/10/27 13:26:19;;;;;;;;;;;19.10;99.90;;;;;;12504080;28;19932;-39
2022/10/27 13:32:27;;;;;;;;;;;19.00;99.90;;;;;;12550322;28;19932;-39
2022/10/27 13:38:29;;;;;;;;;;;19.10;99.90;;;;;;12557691;28;19929;-39
2022/10/27 13:44:32;;;;;;;;;;;19.00;99.90;;;;;;12550982;28;19933;-39
2022/10/27 13:50:35;;;;;;;;;;;19.00;99.90;;;;;;12554253;28;19929;-39
2022/10/27 13:56:37;;;;;;;;;;;18.80;99.90;;;;;;12558451;28;19935;-39
2022/10/27 14:02:45;;;;;;;;;;;18.80;99.90;;;;;;12546418;28;19936;-46
2022/10/27 14:08:49;;;;;;;;;;;18.90;99.90;;;;;;12545863;28;19925;-39
2022/10/27 14:14:59;;;;;;;;;;;18.90;99.90;;;;;;12544033;28;20348;-39
2022/10/27 14:21:10;;;;;;;;;;;19.00;99.90;;;;;;12543682;28;19924;-39
2022/10/27 14:27:13;;;;;;;;;;;18.80;99.90;;;;;;12519519;28;20426;-39
2022/10/27 14:33:15;;;;;;;;;;;18.70;99.90;;;;;;12538276;28;19924;-39
2022/10/27 14:39:25;;;;;;;;;;;18.50;99.90;;;;;;12548045;28;19924;-38
2022/10/27 14:45:27;;;;;;;;;;;18.50;99.90;;;;;;12551868;28;19925;-39
2022/10/27 14:51:30;;;;;;;;;;;18.40;99.90;;;;;;12527773;28;20023;-39
2022/10/27 14:57:34;;;;;;;;;;;18.30;99.90;;;;;;12552814;28;19933;-38
2022/10/27 15:03:35;;;;;;;;;;;18.40;99.90;;;;;;12544528;28;19925;-39
2022/10/27 15:09:41;;;;;;;;;;;18.30;99.90;;;;;;12549620;28;19936;-39
2022/10/27 15:15:45;;;;;;;;;;;18.30;99.90;;;;;;12539980;28;20391;-39
2022/10/27 15:21:48;;;;;;;;;;;18.20;99.90;;;;;;12528281;28;19929;-39
2022/10/27 15:27:50;;;;;;;;;;;18.00;99.90;;;;;;12533008;28;19929;-39
2022/10/27 15:34:00;;;;;;;;;;;18.00;99.90;;;;;;12548152;28;19929;-39
2022/10/27 15:40:19;;;;;;;;;;;18.00;99.90;;;;;;12542048;28;20011;-38
2022/10/27 15:46:30;;;;;;;;;;;17.90;99.90;;;;;;12540037;28;19964;-39
2022/10/27 15:52:32;;;;;;;;;;;17.90;99.90;;;;;;12551961;28;19924;-38
2022/10/27 15:58:35;;;;;;;;;;;17.90;99.90;;;;;;12546208;28;19990;-39
2022/10/27 16:04:38;;;;;;;;;;;17.80;99.90;;;;;;12545899;28;19925;-39
2022/10/27 16:10:41;;;;;;;;;;;17.70;99.90;;;;;;12559439;28;20646;-38
2022/10/27 16:16:42;;;;;;;;;;;17.70;99.90;;;;;;12549581;28;19925;-39
2022/10/27 16:22:45;;;;;;;;;;;17.60;99.90;;;;;;12551352;28;20292;-39
2022/10/27 16:28:47;;;;;;;;;;;17.60;99.90;;;;;;12551020;28;19925;-39
2022/10/27 16:34:49;;;;;;;;;;;17.60;99.90;;;;;;12538486;28;19928;-38
2022/10/27 16:40:50;;;;;;;;;;;17.60;99.90;;;;;;12552535;28;19933;-40
2022/10/27 16:47:00;;;;;;;;;;;17.50;99.90;;;;;;12549093;28;19932;-39
2022/10/27 16:53:01;;;;;;;;;;;17.40;99.90;;;;;;12540661;28;19925;-39
2022/10/27 16:59:03;;;;;;;;;;;17.40;99.90;;;;;;12547978;28;19940;-39
2022/10/27 17:05:06;;;;;;;;;;;17.50;99.90;;;;;;12522674;28;19978;-39
2022/10/27 17:11:09;;;;;;;;;;;17.50;99.90;;;;;;12550967;28;19928;-39
2022/10/27 17:17:11;;;;;;;;;;;17.50;99.90;;;;;;12554842;28;19925;-39
2022/10/27 17:23:13;;;;;;;;;;;17.50;99.90;;;;;;12544565;28;19932;-39
2022/10/27 17:29:15;;;;;;;;;;;17.60;99.90;;;;;;12549794;28;19940;-38
2022/10/27 17:35:17;;;;;;;;;;;17.60;99.90;;;;;;12543613;28;19924;-39
2022/10/27 17:41:18;;;;;;;;;;;17.60;99.90;;;;;;12550719;28;19936;-39
2022/10/27 17:47:21;;;;;;;;;;;17.70;99.90;;;;;;12553715;28;19924;-40
2022/10/27 17:53:23;;;;;;;;;;;17.80;99.90;;;;;;12550199;28;19925;-38
2022/10/27 17:59:24;;;;;;;;;;;17.90;99.90;;;;;;12543443;28;19935;-38
2022/10/27 18:05:26;;;;;;;;;;;18.00;99.90;;;;;;12540323;28;19932;-38
2022/10/27 18:11:31;;;;;;;;;;;18.00;99.90;;;;;;12547474;28;20296;-38
2022/10/27 18:17:33;;;;;;;;;;;18.00;99.90;;;;;;12554702;28;19932;-39
2022/10/27 18:23:35;;;;;;;;;;;17.80;99.90;;;;;;12549549;28;19939;-38
2022/10/27 18:29:37;;;;;;;;;;;17.70;99.90;;;;;;12547803;28;19928;-39
2022/10/27 18:35:39;;;;;;;;;;;17.60;99.90;;;;;;12544508;28;19929;-38
2022/10/27 18:41:41;;;;;;;;;;;17.70;99.90;;;;;;12536635;28;19925;-38
2022/10/27 18:47:43;;;;;;;;;;;17.70;99.90;;;;;;12548192;28;19928;-38
2022/10/27 18:53:46;;;;;;;;;;;17.70;99.90;;;;;;12555109;28;20330;-39
2022/10/27 18:59:48;;;;;;;;;;;17.70;99.90;;;;;;12554769;28;19935;-38
2022/10/27 19:05:55;;;;;;;;;;;17.70;99.90;;;;;;12546838;28;19929;-38
2022/10/27 19:11:57;;;;;;;;;;;17.70;99.90;;;;;;12547903;28;20015;-38
2022/10/27 19:17:59;;;;;;;;;;;17.70;99.90;;;;;;12544515;28;20296;-39
2022/10/27 19:24:01;;;;;;;;;;;17.60;99.90;;;;;;12535718;28;20134;-38
2022/10/27 19:30:03;;;;;;;;;;;17.60;99.90;;;;;;12548927;28;19924;-38
2022/10/27 19:36:09;;;;;;;;;;;17.80;99.90;;;;;;12554505;28;19929;-38
2022/10/27 19:42:11;;;;;;;;;;;17.80;99.90;;;;;;12545185;28;19940;-38
2022/10/27 19:48:13;;;;;;;;;;;17.80;99.90;;;;;;12548722;28;19932;-39
2022/10/27 19:54:16;;;;;;;;;;;17.70;99.90;;;;;;12545117;28;19933;-39
2022/10/27 20:00:18;;;;;;;;;;;17.70;99.90;;;;;;12544425;28;20327;-38
2022/10/27 20:06:20;;;;;;;;;;;17.60;99.90;;;;;;12543654;28;19925;-38
2022/10/27 20:12:22;;;;;;;;;;;17.70;99.90;;;;;;12545849;28;20416;-38
2022/10/27 20:18:23;;;;;;;;;;;17.90;99.90;;;;;;12553261;28;19924;-41
2022/10/27 20:24:25;;;;;;;;;;;17.90;99.90;;;;;;12542893;28;19971;-38
2022/10/27 20:30:27;;;;;;;;;;;17.90;99.90;;;;;;12537535;28;20368;-39
2022/10/27 20:36:29;;;;;;;;;;;17.80;99.90;;;;;;12552355;28;19929;-38
2022/10/27 20:42:31;;;;;;;;;;;17.80;99.90;;;;;;12559367;28;19931;-39
2022/10/27 20:48:33;;;;;;;;;;;17.70;99.90;;;;;;12554881;28;19931;-39
2022/10/27 20:54:35;;;;;;;;;;;17.60;99.90;;;;;;12554438;28;19929;-39
2022/10/27 21:00:37;;;;;;;;;;;17.70;99.90;;;;;;12543274;28;20312;-38
2022/10/27 21:06:40;;;;;;;;;;;17.60;99.90;;;;;;12554515;28;19974;-39
2022/10/27 21:12:42;;;;;;;;;;;17.50;99.90;;;;;;12553891;28;20571;-38
2022/10/27 21:18:44;;;;;;;;;;;17.30;99.90;;;;;;12559052;28;19928;-39
2022/10/27 21:24:45;;;;;;;;;;;17.20;99.90;;;;;;12548855;28;19933;-38
2022/10/27 21:30:47;;;;;;;;;;;17.20;99.90;;;;;;12549747;28;19929;-39
2022/10/27 21:36:49;;;;;;;;;;;17.20;99.90;;;;;;12550089;28;20008;-38
2022/10/27 21:42:50;;;;;;;;;;;17.20;99.90;;;;;;12547361;28;20304;-38
2022/10/27 21:48:54;;;;;;;;;;;17.10;99.90;;;;;;12552538;28;19924;-40
2022/10/27 21:54:56;;;;;;;;;;;17.20;99.90;;;;;;12556433;28;19935;-39
2022/10/27 22:01:05;;;;;;;;;;;17.20;99.90;;;;;;12549526;28;19928;-39
2022/10/27 22:07:07;;;;;;;;;;;17.20;99.90;;;;;;12541804;28;19931;-38
2022/10/27 22:13:09;;;;;;;;;;;17.20;99.90;;;;;;12550201;28;19931;-39
2022/10/27 22:19:11;;;;;;;;;;;17.10;99.90;;;;;;12526582;28;19932;-38
2022/10/27 22:25:13;;;;;;;;;;;17.00;99.90;;;;;;12549246;28;19932;-39
2022/10/27 22:31:16;;;;;;;;;;;16.90;99.90;;;;;;12549698;28;20019;-39
2022/10/27 22:37:18;;;;;;;;;;;16.80;99.90;;;;;;12547648;28;19925;-38
2022/10/27 22:43:19;;;;;;;;;;;17.00;99.90;;;;;;12525550;28;19935;-39
2022/10/27 22:49:21;;;;;;;;;;;17.10;99.90;;;;;;12558290;28;19924;-39
2022/10/27 22:55:23;;;;;;;;;;;17.20;99.90;;;;;;12536903;28;20341;-38
2022/10/27 23:01:31;;;;;;;;;;;17.30;99.90;;;;;;12539885;28;19925;-38
2022/10/27 23:07:33;;;;;;;;;;;17.30;99.90;;;;;;12549512;28;19932;-38
2022/10/27 23:13:35;;;;;;;;;;;17.30;99.90;;;;;;12530718;28;20308;-39
2022/10/27 23:19:37;;;;;;;;;;;17.40;99.90;;;;;;12538311;28;19925;-39
2022/10/27 23:25:39;;;;;;;;;;;17.30;99.90;;;;;;12537635;28;19936;-38
2022/10/27 23:31:42;;;;;;;;;;;17.30;99.90;;;;;;12550904;28;19931;-38
2022/10/27 23:37:43;;;;;;;;;;;17.20;99.90;;;;;;12553519;28;19925;-38
2022/10/27 23:43:49;;;;;;;;;;;17.30;99.90;;;;;;12547103;28;19936;-38
2022/10/27 23:49:50;;;;;;;;;;;17.20;99.90;;;;;;12546470;28;20338;-39
2022/10/27 23:55:52;;;;;;;;;;;17.10;99.90;;;;;;12556141;28;19925;-38
